Time;durP1;ratioP1;P1;durP2;ratioP2;P2;SDS_P1;SDS_P2;PMS_P1;PMS_P2;Temp;Humidity;BMP_temperature;BMP_pressure;BME280_temperature;BME280_humidity;BME280_pressure;Samples;Min_cycle;Max_cycle;Signal;HPM_P1;HPM_P2
2023/07/20 00:00:17;;;;;;;0.80;0.80;;;;;18.10;95963.00;;;;5075536;28;20386;-54
2023/07/20 00:02:44;;;;;;;0.47;0.47;;;;;17.90;95965.00;;;;5075396;28;20191;-55
2023/07/20 00:05:12;;;;;;;0.80;0.80;;;;;18.00;95976.00;;;;5075407;28;20226;-55
2023/07/20 00:07:40;;;;;;;0.90;0.83;;;;;18.10;95972.00;;;;5075207;28;20215;-55
2023/07/20 00:10:09;;;;;;;0.60;0.60;;;;;18.10;95973.00;;;;5075264;28;20191;-56
2023/07/20 00:12:36;;;;;;;0.87;0.87;;;;;18.00;95975.00;;;;5075458;28;20198;-54
2023/07/20 00:15:04;;;;;;;0.80;0.60;;;;;18.00;95971.00;;;;5075196;28;20626;-55
2023/07/20 00:17:32;;;;;;;0.70;0.70;;;;;17.90;95972.00;;;;5075390;28;20212;-55
2023/07/20 00:19:59;;;;;;;0.63;0.63;;;;;17.70;95972.00;;;;5075069;28;20192;-54
2023/07/20 00:22:27;;;;;;;1.13;0.97;;;;;17.80;95973.00;;;;5075046;28;20655;-54
2023/07/20 00:24:55;;;;;;;0.80;0.80;;;;;17.70;95967.00;;;;5074991;28;20195;-54
2023/07/20 00:27:23;;;;;;;1.00;1.00;;;;;17.80;95962.00;;;;5075052;28;20686;-54
2023/07/20 00:29:50;;;;;;;0.67;0.67;;;;;17.80;95967.00;;;;5075179;28;20534;-54
2023/07/20 00:32:18;;;;;;;0.77;0.77;;;;;18.00;95967.00;;;;5075051;28;20568;-54
2023/07/20 00:34:45;;;;;;;0.70;0.70;;;;;17.90;95970.00;;;;5074981;28;20199;-54
2023/07/20 00:37:13;;;;;;;0.67;0.67;;;;;17.70;95973.00;;;;5074678;28;20211;-54
2023/07/20 00:39:40;;;;;;;0.80;0.80;;;;;17.80;95982.00;;;;5075288;28;20194;-54
2023/07/20 00:42:09;;;;;;;1.07;1.03;;;;;17.40;95975.00;;;;5073841;28;20188;-56
2023/07/20 00:44:37;;;;;;;0.70;0.70;;;;;17.30;95975.00;;;;5074871;28;20191;-54
2023/07/20 00:47:05;;;;;;;0.50;0.50;;;;;17.40;95964.00;;;;5074500;28;20211;-54
2023/07/20 00:49:33;;;;;;;1.43;1.33;;;;;17.20;95963.00;;;;5074521;28;20196;-54
2023/07/20 00:52:00;;;;;;;0.47;0.47;;;;;17.20;95966.00;;;;5074444;28;20223;-54
2023/07/20 00:54:28;;;;;;;0.80;0.80;;;;;17.40;95971.00;;;;5074495;28;20206;-54
2023/07/20 00:56:56;;;;;;;0.83;0.70;;;;;17.10;95970.00;;;;5074681;28;20223;-54
2023/07/20 00:59:26;;;;;;;0.60;0.60;;;;;17.10;95970.00;;;;5074940;28;20196;-54
2023/07/20 01:01:53;;;;;;;0.73;0.73;;;;;17.00;95980.00;;;;5075324;28;20531;-54
2023/07/20 01:04:21;;;;;;;0.60;0.60;;;;;16.80;95975.00;;;;5074999;28;20665;-54
2023/07/20 01:06:57;;;;;;;0.43;0.43;;;;;16.90;95981.00;;;;5074487;28;20211;-54
2023/07/20 01:09:31;;;;;;;0.60;0.60;;;;;16.90;95977.00;;;;5074510;28;20537;-54
2023/07/20 01:12:05;;;;;;;1.40;1.30;;;;;16.70;95970.00;;;;5074301;28;20204;-54
2023/07/20 01:14:36;;;;;;;0.70;0.70;;;;;16.60;95971.00;;;;5074267;28;20282;-54
2023/07/20 01:17:04;;;;;;;1.80;0.73;;;;;16.50;95972.00;;;;5074826;28;20302;-54
2023/07/20 01:19:31;;;;;;;0.60;0.60;;;;;16.50;95970.00;;;;5073886;28;20677;-54
2023/07/20 01:22:07;;;;;;;0.80;0.80;;;;;16.50;95971.00;;;;5074204;28;20555;-55
2023/07/20 01:25:00;;;;;;;0.60;0.60;;;;;16.60;95971.00;;;;5074226;28;20182;-55
2023/07/20 01:28:13;;;;;;;0.60;0.60;;;;;16.80;95963.00;;;;5055768;28;20259;-55
2023/07/20 01:31:00;;;;;;;0.50;0.50;;;;;16.90;95973.00;;;;5073695;28;20281;-55
2023/07/20 01:33:32;;;;;;;0.97;0.97;;;;;16.90;95964.00;;;;5073959;28;20195;-55
2023/07/20 01:36:02;;;;;;;0.97;0.97;;;;;16.80;95961.00;;;;5073718;28;20184;-55
2023/07/20 01:38:30;;;;;;;0.50;0.50;;;;;16.80;95959.00;;;;5073562;28;20215;-55
2023/07/20 01:40:58;;;;;;;0.80;0.80;;;;;16.80;95956.00;;;;5073615;28;20191;-55
2023/07/20 01:43:25;;;;;;;0.87;0.87;;;;;16.70;95957.00;;;;5073697;28;20195;-55
2023/07/20 01:45:53;;;;;;;0.67;0.67;;;;;16.70;95964.00;;;;5073706;28;20278;-55
2023/07/20 01:48:20;;;;;;;0.93;0.93;;;;;16.70;95962.00;;;;5073521;28;20215;-55
2023/07/20 01:50:49;;;;;;;0.97;0.93;;;;;16.60;95963.00;;;;5073692;28;20207;-55
2023/07/20 01:53:16;;;;;;;0.77;0.77;;;;;16.60;95964.00;;;;5073425;28;20206;-56
2023/07/20 01:55:44;;;;;;;3.03;0.97;;;;;16.60;95963.00;;;;5055393;28;20682;-55
2023/07/20 01:58:11;;;;;;;0.70;0.70;;;;;16.60;95962.00;;;;5073283;28;20225;-55
2023/07/20 02:00:39;;;;;;;2.20;1.07;;;;;16.60;95962.00;;;;5073571;28;20565;-55
2023/07/20 02:03:07;;;;;;;1.90;0.80;;;;;16.50;95964.00;;;;5073275;28;20196;-55
2023/07/20 02:05:34;;;;;;;0.63;0.63;;;;;16.50;95965.00;;;;5073276;28;20624;-55
2023/07/20 02:08:03;;;;;;;0.50;0.50;;;;;16.50;95957.00;;;;5056214;28;20269;-55
2023/07/20 02:10:31;;;;;;;0.60;0.60;;;;;16.40;95970.00;;;;5073126;28;20256;-55
2023/07/20 02:12:58;;;;;;;0.70;0.70;;;;;16.30;95956.00;;;;5073147;28;20196;-55
2023/07/20 02:15:27;;;;;;;0.50;0.50;;;;;16.20;95973.00;;;;5073126;28;20187;-55
2023/07/20 02:17:54;;;;;;;0.83;0.83;;;;;16.20;95965.00;;;;5072999;28;20211;-55
2023/07/20 02:20:21;;;;;;;1.07;0.97;;;;;16.00;95957.00;;;;5073063;28;20199;-55
2023/07/20 02:22:49;;;;;;;0.60;0.60;;;;;15.90;95958.00;;;;5073023;28;20226;-55
2023/07/20 02:25:18;;;;;;;0.77;0.77;;;;;15.80;95958.00;;;;5072895;28;20187;-55
2023/07/20 02:27:45;;;;;;;0.70;0.70;;;;;15.80;95956.00;;;;5072753;28;20215;-55
2023/07/20 02:30:13;;;;;;;0.77;0.77;;;;;15.90;95960.00;;;;5072883;28;20200;-55
2023/07/20 02:32:44;;;;;;;1.33;1.27;;;;;15.80;95963.00;;;;5072930;28;20215;-55
2023/07/20 02:35:11;;;;;;;0.40;0.40;;;;;15.70;95971.00;;;;5073156;28;20270;-55
2023/07/20 02:37:39;;;;;;;0.47;0.47;;;;;15.70;95961.00;;;;5072907;28;20282;-55
2023/07/20 02:40:07;;;;;;;1.10;0.90;;;;;15.80;95971.00;;;;5072909;28;20202;-55
2023/07/20 02:42:36;;;;;;;0.80;0.80;;;;;15.80;95973.00;;;;5072760;28;20241;-55
2023/07/20 02:45:05;;;;;;;0.90;0.90;;;;;15.70;95965.00;;;;5072702;28;20187;-55
2023/07/20 02:47:33;;;;;;;0.57;0.57;;;;;15.70;95974.00;;;;5072884;28;20211;-55
2023/07/20 02:50:00;;;;;;;0.90;0.77;;;;;15.70;95985.00;;;;5072764;28;20195;-56
2023/07/20 02:52:29;;;;;;;0.80;0.80;;;;;15.60;95979.00;;;;5073191;28;20223;-54
2023/07/20 02:54:56;;;;;;;0.60;0.60;;;;;15.50;95977.00;;;;5072670;28;20200;-55
2023/07/20 02:57:24;;;;;;;0.63;0.63;;;;;15.60;95975.00;;;;5072605;28;20219;-55
2023/07/20 02:59:53;;;;;;;0.70;0.70;;;;;15.50;95974.00;;;;5054661;28;20658;-55
2023/07/20 03:02:20;;;;;;;0.83;0.83;;;;;15.60;95977.00;;;;5072580;28;20194;-55
2023/07/20 03:04:48;;;;;;;0.90;0.90;;;;;15.60;95970.00;;;;5072608;28;20535;-55
2023/07/20 03:07:15;;;;;;;0.67;0.67;;;;;15.50;95972.00;;;;5076266;28;20280;-55
2023/07/20 03:09:43;;;;;;;0.80;0.80;;;;;15.50;95967.00;;;;5076555;28;20249;-55
2023/07/20 03:12:11;;;;;;;0.70;0.70;;;;;15.50;95973.00;;;;5076648;28;20215;-55
2023/07/20 03:14:38;;;;;;;1.03;0.87;;;;;15.50;95974.00;;;;5076408;28;20198;-55
2023/07/20 03:17:08;;;;;;;1.73;1.03;;;;;15.50;95979.00;;;;5076275;28;20208;-55
2023/07/20 03:19:35;;;;;;;1.00;1.00;;;;;15.50;95979.00;;;;5076312;28;20196;-55
2023/07/20 03:22:03;;;;;;;0.60;0.60;;;;;15.40;95972.00;;;;5076281;28;20187;-55
2023/07/20 03:24:30;;;;;;;0.60;0.60;;;;;15.40;95972.00;;;;5076482;28;20198;-55
2023/07/20 03:26:58;;;;;;;0.53;0.53;;;;;15.50;95982.00;;;;5076149;28;20571;-55
2023/07/20 03:29:25;;;;;;;0.67;0.67;;;;;15.60;95965.00;;;;5058222;28;20192;-55
2023/07/20 03:31:53;;;;;;;0.60;0.60;;;;;15.70;95975.00;;;;5058105;28;20227;-55
2023/07/20 03:34:21;;;;;;;0.60;0.60;;;;;15.60;95982.00;;;;5076352;28;20623;-55
2023/07/20 03:36:49;;;;;;;0.60;0.60;;;;;15.40;95983.00;;;;5075889;28;20212;-55
2023/07/20 03:39:16;;;;;;;0.70;0.70;;;;;15.30;95975.00;;;;5076193;28;20199;-55
2023/07/20 03:41:44;;;;;;;0.87;0.87;;;;;15.10;95981.00;;;;5075856;28;20184;-55
2023/07/20 03:44:11;;;;;;;0.80;0.80;;;;;15.00;95984.00;;;;5075911;28;20529;-55
2023/07/20 03:46:38;;;;;;;0.63;0.63;;;;;14.90;95987.00;;;;5076262;28;20264;-55
2023/07/20 03:49:08;;;;;;;0.77;0.77;;;;;14.90;95990.00;;;;5075843;28;20191;-55
2023/07/20 03:51:37;;;;;;;2.40;0.87;;;;;15.00;95986.00;;;;5057694;28;20756;-55
2023/07/20 03:54:04;;;;;;;0.80;0.80;;;;;15.10;95986.00;;;;5076006;28;20242;-55
2023/07/20 03:56:35;;;;;;;0.40;0.40;;;;;15.20;95984.00;;;;5075818;28;20207;-55
2023/07/20 03:59:02;;;;;;;0.90;0.90;;;;;15.30;95985.00;;;;5075539;28;20274;-56
2023/07/20 04:01:30;;;;;;;0.80;0.80;;;;;15.40;95979.00;;;;5075770;28;20283;-54
2023/07/20 04:03:57;;;;;;;1.20;1.20;;;;;15.50;95983.00;;;;5075483;28;20199;-54
2023/07/20 04:06:25;;;;;;;0.70;0.70;;;;;15.60;95981.00;;;;5075647;28;20183;-54
2023/07/20 04:08:53;;;;;;;0.73;0.73;;;;;15.70;95990.00;;;;5058153;28;20202;-54
2023/07/20 04:11:21;;;;;;;0.67;0.67;;;;;15.60;95983.00;;;;5075544;28;20199;-54
2023/07/20 04:13:48;;;;;;;0.70;0.70;;;;;15.80;95992.00;;;;5076026;28;20655;-55
2023/07/20 04:16:16;;;;;;;0.70;0.70;;;;;15.80;95986.00;;;;5075545;28;20195;-55
2023/07/20 04:18:43;;;;;;;0.80;0.80;;;;;15.90;95991.00;;;;5075217;28;20191;-55
2023/07/20 04:21:11;;;;;;;0.50;0.50;;;;;16.00;95994.00;;;;5075228;28;20192;-55
2023/07/20 04:23:38;;;;;;;0.87;0.87;;;;;16.10;95996.00;;;;5075533;28;20195;-55
2023/07/20 04:26:07;;;;;;;0.87;0.87;;;;;16.10;95987.00;;;;5075075;28;20192;-55
2023/07/20 04:28:35;;;;;;;0.73;0.73;;;;;16.20;96005.00;;;;5074793;28;20698;-55
2023/07/20 04:31:12;;;;;;;0.57;0.57;;;;;16.30;95996.00;;;;5074959;28;20673;-55
2023/07/20 04:33:39;;;;;;;0.50;0.50;;;;;16.20;96001.00;;;;5056856;28;20301;-55
2023/07/20 04:36:07;;;;;;;1.03;1.03;;;;;16.00;95997.00;;;;5074967;28;20206;-55
2023/07/20 04:38:34;;;;;;;0.90;0.90;;;;;15.80;95996.00;;;;5056847;28;20716;-55
2023/07/20 04:41:02;;;;;;;1.13;1.03;;;;;15.80;95993.00;;;;5074800;28;20202;-55
2023/07/20 04:43:31;;;;;;;1.43;1.40;;;;;15.90;95996.00;;;;5074653;28;20191;-55
2023/07/20 04:45:58;;;;;;;0.67;0.67;;;;;16.00;95991.00;;;;5056638;28;20241;-55
2023/07/20 04:48:26;;;;;;;1.23;1.13;;;;;16.00;95991.00;;;;5074563;28;20332;-55
2023/07/20 04:50:53;;;;;;;1.40;1.17;;;;;16.10;95992.00;;;;5056566;28;20657;-55
2023/07/20 04:53:21;;;;;;;0.50;0.50;;;;;16.00;95992.00;;;;5074326;28;20226;-54
2023/07/20 04:55:52;;;;;;;0.90;0.90;;;;;16.10;95989.00;;;;5074467;28;20196;-55
2023/07/20 04:58:19;;;;;;;0.70;0.70;;;;;16.20;96000.00;;;;5074631;28;20219;-55
2023/07/20 05:00:49;;;;;;;0.70;0.70;;;;;16.20;95994.00;;;;5074384;28;20194;-55
2023/07/20 05:03:16;;;;;;;1.60;0.87;;;;;16.20;95996.00;;;;5074326;28;20237;-55
2023/07/20 05:05:44;;;;;;;0.70;0.70;;;;;16.20;96003.00;;;;5074249;28;20301;-55
2023/07/20 05:08:11;;;;;;;7.23;4.77;;;;;16.40;95995.00;;;;5074034;28;20211;-55
2023/07/20 05:10:39;;;;;;;3.13;2.93;;;;;16.40;95988.00;;;;5074034;28;20191;-55
2023/07/20 05:13:06;;;;;;;0.80;0.80;;;;;16.50;95991.00;;;;5073975;28;20239;-55
2023/07/20 05:15:34;;;;;;;0.60;0.60;;;;;16.50;95989.00;;;;5074067;28;20188;-55
2023/07/20 05:18:03;;;;;;;1.40;1.37;;;;;16.40;95985.00;;;;5074294;28;20207;-54
2023/07/20 05:20:31;;;;;;;0.60;0.60;;;;;16.50;95990.00;;;;5074151;28;20591;-55
2023/07/20 05:22:58;;;;;;;0.70;0.70;;;;;16.70;95998.00;;;;5073915;28;20694;-55
2023/07/20 05:25:26;;;;;;;0.60;0.60;;;;;16.70;95990.00;;;;5074073;28;20569;-55
2023/07/20 05:27:55;;;;;;;0.70;0.70;;;;;16.70;95991.00;;;;5055193;28;20227;-55
2023/07/20 05:30:22;;;;;;;2.83;2.63;;;;;16.90;95991.00;;;;5073584;28;20198;-56
2023/07/20 05:32:52;;;;;;;1.03;1.03;;;;;16.90;95982.00;;;;5073561;28;20211;-54
2023/07/20 05:35:22;;;;;;;1.70;1.60;;;;;16.90;95988.00;;;;5074059;28;20199;-54
2023/07/20 05:37:49;;;;;;;0.83;0.83;;;;;16.90;95981.00;;;;5073392;28;20652;-54
2023/07/20 05:40:18;;;;;;;1.30;1.20;;;;;16.90;95981.00;;;;5073463;28;20633;-56
2023/07/20 05:42:47;;;;;;;1.20;1.10;;;;;17.10;95986.00;;;;5073726;28;20647;-56
2023/07/20 05:45:15;;;;;;;0.90;0.90;;;;;17.30;95984.00;;;;5073487;28;20195;-56
2023/07/20 05:47:43;;;;;;;1.00;1.00;;;;;17.40;95983.00;;;;5073315;28;20272;-54
2023/07/20 05:50:11;;;;;;;0.70;0.70;;;;;17.50;95985.00;;;;5073343;28;20196;-54
2023/07/20 05:52:40;;;;;;;0.80;0.80;;;;;17.60;95980.00;;;;5073174;28;20229;-57
2023/07/20 05:55:08;;;;;;;0.63;0.63;;;;;17.60;95985.00;;;;5073264;28;20650;-54
2023/07/20 05:57:39;;;;;;;0.70;0.70;;;;;17.70;95995.00;;;;5073357;28;20311;-54
2023/07/20 06:00:08;;;;;;;0.40;0.40;;;;;17.70;95990.00;;;;5073325;28;20238;-53
2023/07/20 06:02:36;;;;;;;0.80;0.80;;;;;17.80;95988.00;;;;5073080;28;20184;-54
2023/07/20 06:05:04;;;;;;;0.50;0.50;;;;;17.80;95987.00;;;;5073094;28;20593;-54
2023/07/20 06:07:31;;;;;;;0.60;0.60;;;;;17.90;95992.00;;;;5073737;28;20215;-54
2023/07/20 06:10:00;;;;;;;0.87;0.87;;;;;17.90;95990.00;;;;5073160;28;20405;-54
2023/07/20 06:12:28;;;;;;;0.73;0.73;;;;;17.90;95996.00;;;;5073364;28;20215;-54
2023/07/20 06:14:55;;;;;;;0.50;0.50;;;;;17.80;95998.00;;;;5073147;28;20203;-55
2023/07/20 06:17:23;;;;;;;1.43;1.43;;;;;17.70;96005.00;;;;5072903;28;20211;-55
2023/07/20 06:19:50;;;;;;;0.60;0.60;;;;;17.60;95992.00;;;;5073340;28;20218;-55
2023/07/20 06:22:18;;;;;;;0.70;0.70;;;;;17.70;95997.00;;;;5073337;28;20196;-59
2023/07/20 06:24:45;;;;;;;0.60;0.60;;;;;17.80;95992.00;;;;5072979;28;20219;-55
2023/07/20 06:27:14;;;;;;;1.20;1.10;;;;;17.90;95998.00;;;;5072923;28;20226;-55
2023/07/20 06:29:42;;;;;;;0.83;0.83;;;;;17.80;95995.00;;;;5073002;28;20187;-55
2023/07/20 06:32:10;;;;;;;1.57;1.03;;;;;17.90;95999.00;;;;5072931;28;20199;-54
2023/07/20 06:34:38;;;;;;;0.67;0.67;;;;;17.90;96001.00;;;;5074123;28;20196;-55
2023/07/20 06:37:06;;;;;;;0.50;0.50;;;;;17.80;95988.00;;;;5056674;28;20717;-54
2023/07/20 06:39:33;;;;;;;0.40;0.40;;;;;17.80;95997.00;;;;5074445;28;20199;-54
2023/07/20 06:42:00;;;;;;;0.50;0.50;;;;;17.90;95990.00;;;;5076734;28;20557;-54
2023/07/20 06:44:29;;;;;;;0.47;0.47;;;;;18.10;96000.00;;;;5076973;28;20188;-54
2023/07/20 06:46:57;;;;;;;0.80;0.80;;;;;18.00;95996.00;;;;5073386;28;20219;-55
2023/07/20 06:49:28;;;;;;;0.97;0.97;;;;;18.20;95996.00;;;;5073651;28;20199;-54
2023/07/20 06:51:55;;;;;;;0.63;0.63;;;;;18.40;95990.00;;;;5075267;28;20198;-55
2023/07/20 06:54:23;;;;;;;0.50;0.50;;;;;18.40;95994.00;;;;5074464;28;20724;-55
2023/07/20 06:56:50;;;;;;;0.87;0.87;;;;;18.40;95991.00;;;;5075004;28;20218;-55
2023/07/20 06:59:18;;;;;;;1.80;0.80;;;;;18.50;95995.00;;;;5056454;28;20206;-55
2023/07/20 07:01:46;;;;;;;1.00;1.00;;;;;18.90;95995.00;;;;5055384;28;20689;-54
2023/07/20 07:04:14;;;;;;;0.93;0.93;;;;;19.00;95985.00;;;;5074135;28;20200;-54
2023/07/20 07:06:41;;;;;;;0.67;0.67;;;;;19.20;95990.00;;;;5074851;28;20298;-54
2023/07/20 07:09:09;;;;;;;0.93;0.93;;;;;19.40;95984.00;;;;5072870;28;20201;-55
2023/07/20 07:11:36;;;;;;;0.70;0.70;;;;;19.10;95984.00;;;;5074394;28;20256;-54
2023/07/20 07:14:04;;;;;;;1.10;0.90;;;;;18.80;95991.00;;;;5074230;28;20779;-54
2023/07/20 07:16:31;;;;;;;0.73;0.73;;;;;18.90;95980.00;;;;5074227;28;20219;-55
2023/07/20 07:19:00;;;;;;;0.70;0.70;;;;;19.00;95979.00;;;;5074580;28;20228;-55
2023/07/20 07:21:28;;;;;;;0.80;0.80;;;;;19.30;95975.00;;;;5056305;28;20206;-55
2023/07/20 07:23:57;;;;;;;0.60;0.60;;;;;19.40;95965.00;;;;5074109;28;20278;-55
2023/07/20 07:26:24;;;;;;;0.50;0.50;;;;;19.40;95980.00;;;;5072908;28;20670;-55
2023/07/20 07:28:52;;;;;;;0.70;0.70;;;;;19.50;95977.00;;;;5073607;28;20787;-54
2023/07/20 07:31:20;;;;;;;0.90;0.90;;;;;19.60;95971.00;;;;5073925;28;20195;-55
2023/07/20 07:33:48;;;;;;;0.60;0.60;;;;;19.70;95971.00;;;;5074135;28;20212;-55
2023/07/20 07:36:17;;;;;;;0.80;0.80;;;;;19.90;95971.00;;;;5056107;28;20200;-55
2023/07/20 07:38:44;;;;;;;0.60;0.60;;;;;20.20;95976.00;;;;5074292;28;20536;-55
2023/07/20 07:41:11;;;;;;;0.50;0.50;;;;;20.30;95965.00;;;;5073948;28;20203;-55
2023/07/20 07:43:39;;;;;;;0.70;0.70;;;;;20.70;95972.00;;;;5069527;28;20740;-55
2023/07/20 07:46:07;;;;;;;1.17;1.17;;;;;20.60;95962.00;;;;5073449;28;20191;-55
2023/07/20 07:48:34;;;;;;;0.60;0.60;;;;;20.80;95976.00;;;;5073579;28;20297;-54
2023/07/20 07:51:02;;;;;;;0.70;0.70;;;;;20.80;95974.00;;;;5073228;28;20658;-55
2023/07/20 07:53:32;;;;;;;16.47;0.93;;;;;20.50;95972.00;;;;5073661;28;20215;-54
2023/07/20 07:56:00;;;;;;;3.50;1.30;;;;;20.40;95971.00;;;;5073593;28;20196;-54
2023/07/20 07:58:27;;;;;;;0.60;0.60;;;;;20.30;95981.00;;;;5073491;28;20219;-55
2023/07/20 08:00:55;;;;;;;0.90;0.90;;;;;20.40;95971.00;;;;5055575;28;20199;-55
2023/07/20 08:03:24;;;;;;;0.60;0.60;;;;;20.50;95964.00;;;;5073503;28;20600;-58
2023/07/20 08:05:51;;;;;;;0.87;0.87;;;;;20.90;95964.00;;;;5073713;28;20196;-55
2023/07/20 08:08:19;;;;;;;0.67;0.67;;;;;20.40;95959.00;;;;5054952;28;20585;-55
2023/07/20 08:10:49;;;;;;;0.80;0.80;;;;;20.30;95952.00;;;;5073905;28;20223;-55
2023/07/20 08:13:16;;;;;;;0.67;0.67;;;;;20.40;95960.00;;;;5072081;28;20573;-55
2023/07/20 08:15:51;;;;;;;0.67;0.67;;;;;20.50;95963.00;;;;5072876;28;20371;-55
2023/07/20 08:18:19;;;;;;;0.70;0.70;;;;;20.70;95966.00;;;;5073285;28;20284;-55
2023/07/20 08:20:47;;;;;;;0.47;0.47;;;;;20.30;95976.00;;;;5073258;28;20203;-55
2023/07/20 08:23:14;;;;;;;0.90;0.90;;;;;20.20;95951.00;;;;5072791;28;20202;-55
2023/07/20 08:25:43;;;;;;;0.80;0.70;;;;;20.30;95949.00;;;;5073570;28;20203;-55
2023/07/20 08:28:13;;;;;;;0.97;0.97;;;;;20.60;95955.00;;;;5079936;22;20638;-56
2023/07/20 08:30:44;;;;;;;0.77;0.77;;;;;21.10;95950.00;;;;5052133;28;20207;-56
2023/07/20 08:33:13;;;;;;;0.60;0.60;;;;;21.20;95939.00;;;;5052360;28;20216;-57
2023/07/20 08:35:41;;;;;;;0.60;0.60;;;;;21.20;95953.00;;;;5053167;28;20204;-57
2023/07/20 08:38:08;;;;;;;2.93;0.80;;;;;20.50;95978.00;;;;5052618;28;20215;-57
2023/07/20 08:40:42;;;;;;;0.77;0.77;;;;;20.30;95978.00;;;;5052878;28;20203;-57
2023/07/20 08:43:13;;;;;;;0.40;0.40;;;;;20.20;95971.00;;;;5028525;28;20193;-56
2023/07/20 08:45:41;;;;;;;1.00;0.90;;;;;20.40;95955.00;;;;5033131;28;20197;-57
2023/07/20 08:48:09;;;;;;;0.63;0.63;;;;;20.50;95959.00;;;;5032755;28;20221;-57
2023/07/20 08:50:37;;;;;;;0.50;0.50;;;;;20.50;95975.00;;;;5014969;28;20690;-56
2023/07/20 08:53:05;;;;;;;0.43;0.43;;;;;20.20;95972.00;;;;5032759;28;20327;-56
2023/07/20 08:55:32;;;;;;;1.80;1.23;;;;;19.70;95984.00;;;;5032578;28;20200;-55
2023/07/20 08:58:01;;;;;;;0.93;0.93;;;;;19.90;95962.00;;;;5032864;28;20224;-55
2023/07/20 09:00:30;;;;;;;0.50;0.50;;;;;20.60;95957.00;;;;5012034;28;20211;-56
2023/07/20 09:03:00;;;;;;;0.70;0.70;;;;;20.70;95949.00;;;;5014191;28;20205;-56
2023/07/20 09:05:27;;;;;;;0.83;0.83;;;;;21.10;95942.00;;;;5031570;28;20555;-56
2023/07/20 09:07:55;;;;;;;0.93;0.93;;;;;21.40;95946.00;;;;5014780;28;20286;-55
2023/07/20 09:10:23;;;;;;;0.80;0.80;;;;;21.40;95958.00;;;;5031882;28;20283;-55
2023/07/20 09:12:50;;;;;;;0.60;0.60;;;;;21.70;95948.00;;;;5014442;28;20211;-56
2023/07/20 09:15:20;;;;;;;0.77;0.77;;;;;21.40;95960.00;;;;5031816;28;20201;-56
2023/07/20 09:17:50;;;;;;;0.60;0.60;;;;;20.80;95970.00;;;;5031710;28;20708;-55
2023/07/20 09:20:19;;;;;;;0.40;0.40;;;;;20.20;95980.00;;;;5013873;28;20687;-55
2023/07/20 09:22:47;;;;;;;0.60;0.60;;;;;20.20;95976.00;;;;5031558;28;20205;-55
2023/07/20 09:25:16;;;;;;;0.80;0.80;;;;;20.60;95959.00;;;;5031639;28;20189;-55
2023/07/20 09:27:46;;;;;;;0.90;0.90;;;;;20.40;95963.00;;;;5032121;28;20225;-56
2023/07/20 09:30:14;;;;;;;0.60;0.60;;;;;20.40;95976.00;;;;5031540;28;20185;-55
2023/07/20 09:32:43;;;;;;;0.60;0.60;;;;;20.70;95962.00;;;;5031970;28;20660;-56
2023/07/20 09:35:16;;;;;;;0.87;0.87;;;;;21.10;95951.00;;;;5031804;28;20551;-56
2023/07/20 09:37:53;;;;;;;1.70;1.00;;;;;21.30;95950.00;;;;5028118;28;20299;-56
2023/07/20 09:40:21;;;;;;;0.60;0.60;;;;;21.40;95954.00;;;;5031250;28;20200;-56
2023/07/20 09:42:48;;;;;;;0.65;0.65;;;;;21.80;95958.00;;;;5032072;28;20246;-56
2023/07/20 09:45:16;;;;;;;0.70;0.70;;;;;22.00;95950.00;;;;5013098;28;20189;-56
2023/07/20 09:47:43;;;;;;;0.50;0.50;;;;;21.60;95955.00;;;;5030720;28;20216;-56
2023/07/20 09:50:11;;;;;;;0.50;0.50;;;;;21.60;95957.00;;;;5031144;28;20205;-56
2023/07/20 09:52:43;;;;;;;0.70;0.70;;;;;21.30;95958.00;;;;5043947;28;20698;-56
2023/07/20 09:55:13;;;;;;;0.80;0.80;;;;;21.30;95952.00;;;;5051158;28;20224;-56
2023/07/20 09:57:41;;;;;;;0.40;0.40;;;;;21.20;95962.00;;;;5051497;28;20220;-56
2023/07/20 10:00:12;;;;;;;0.67;0.67;;;;;20.90;95951.00;;;;5032880;28;20227;-56
2023/07/20 10:02:44;;;;;;;1.13;0.80;;;;;21.00;95951.00;;;;5043057;28;20184;-56
2023/07/20 10:05:14;;;;;;;0.80;0.80;;;;;21.20;95957.00;;;;5030880;28;20641;-56
2023/07/20 10:07:47;;;;;;;0.40;0.40;;;;;21.40;95942.00;;;;5031806;28;20249;-56
2023/07/20 10:10:17;;;;;;;0.80;0.80;;;;;21.60;95955.00;;;;5030905;28;20189;-56
2023/07/20 10:12:47;;;;;;;0.50;0.50;;;;;21.70;95952.00;;;;5014498;28;20207;-55
2023/07/20 10:15:20;;;;;;;0.57;0.57;;;;;21.60;95941.00;;;;5050357;28;20216;-56
2023/07/20 10:17:58;;;;;;;0.57;0.57;;;;;21.60;95941.00;;;;5032909;28;20224;-56
2023/07/20 10:20:28;;;;;;;0.82;0.82;;;;;22.20;95937.00;;;;5050228;28;20203;-56
2023/07/20 10:22:58;;;;;;;0.50;0.50;;;;;22.30;95931.00;;;;5051313;28;20203;-56
2023/07/20 10:25:26;;;;;;;0.70;0.70;;;;;22.00;95943.00;;;;5050840;28;20184;-56
2023/07/20 10:27:54;;;;;;;0.63;0.63;;;;;22.40;95931.00;;;;5051157;28;20231;-56
2023/07/20 10:30:22;;;;;;;0.40;0.40;;;;;22.00;95942.00;;;;5051224;28;20524;-56
2023/07/20 10:32:51;;;;;;;0.75;0.75;;;;;22.00;95927.00;;;;5050816;28;20196;-56
2023/07/20 10:35:19;;;;;;;2.00;0.93;;;;;21.70;95941.00;;;;5050666;28;20584;-55
2023/07/20 10:37:54;;;;;;;0.53;0.53;;;;;21.60;95935.00;;;;5050641;28;20764;-56
2023/07/20 10:40:31;;;;;;;1.35;1.02;;;;;21.70;95936.00;;;;5029990;28;20216;-56
2023/07/20 10:43:00;;;;;;;0.50;0.50;;;;;21.70;95933.00;;;;5030840;28;20250;-56
2023/07/20 10:45:40;;;;;;;0.80;0.80;;;;;21.70;95913.00;;;;5048477;28;20192;-56
2023/07/20 10:48:14;;;;;;;0.87;0.83;;;;;22.10;95909.00;;;;5041657;28;20252;-58
2023/07/20 10:50:42;;;;;;;0.55;0.55;;;;;22.60;95909.00;;;;5031164;28;20270;-57
2023/07/20 10:53:15;;;;;;;0.68;0.68;;;;;22.40;95919.00;;;;5026772;28;20259;-56
2023/07/20 10:55:46;;;;;;;0.60;0.60;;;;;21.80;95922.00;;;;5012687;28;20278;-56
2023/07/20 10:58:15;;;;;;;0.60;0.60;;;;;21.60;95921.00;;;;5027453;28;20695;-59
2023/07/20 11:01:00;;;;;;;0.77;0.70;;;;;22.20;95922.00;;;;5030614;28;20275;-56
2023/07/20 11:03:33;;;;;;;0.63;0.63;;;;;22.00;95921.00;;;;5012852;28;20200;-56
2023/07/20 11:06:22;;;;;;;0.50;0.50;;;;;22.30;95902.00;;;;5030871;28;20553;-56
2023/07/20 11:08:49;;;;;;;0.43;0.43;;;;;23.00;95911.00;;;;5030555;28;20216;-57
2023/07/20 11:11:28;;;;;;;0.47;0.47;;;;;23.10;95917.00;;;;5012793;28;20233;-57
2023/07/20 11:13:58;;;;;;;1.80;0.80;;;;;23.40;95918.00;;;;5030543;28;20291;-57
2023/07/20 11:16:35;;;;;;;0.57;0.57;;;;;23.30;95919.00;;;;5030488;28;20208;-57
2023/07/20 11:19:03;;;;;;;0.40;0.40;;;;;23.20;95909.00;;;;5026487;28;20641;-56
2023/07/20 11:21:36;;;;;;;0.70;0.70;;;;;23.20;95904.00;;;;5030467;28;20197;-56
2023/07/20 11:24:05;;;;;;;0.57;0.57;;;;;22.80;95916.00;;;;5041791;28;20245;-56
2023/07/20 11:26:46;;;;;;;0.50;0.50;;;;;22.60;95923.00;;;;5051232;28;20746;-56
2023/07/20 11:29:15;;;;;;;0.60;0.60;;;;;22.60;95896.00;;;;5053900;28;20227;-56
2023/07/20 11:31:43;;;;;;;0.68;0.68;;;;;23.00;95888.00;;;;5053980;28;20227;-57
2023/07/20 11:34:13;;;;;;;0.68;0.68;;;;;23.60;95898.00;;;;5043894;28;20221;-56
2023/07/20 11:36:42;;;;;;;0.80;0.80;;;;;23.70;95911.00;;;;5034234;28;20719;-57
2023/07/20 11:39:10;;;;;;;0.80;0.80;;;;;23.40;95882.00;;;;5041047;28;20220;-57
2023/07/20 11:41:39;;;;;;;0.60;0.60;;;;;23.40;95898.00;;;;5038041;28;20203;-56
2023/07/20 11:44:13;;;;;;;0.57;0.57;;;;;23.60;95896.00;;;;5053689;28;20196;-58
2023/07/20 11:46:42;;;;;;;0.70;0.70;;;;;23.80;95876.00;;;;5054388;28;20667;-57
2023/07/20 11:49:09;;;;;;;0.40;0.40;;;;;24.40;95869.00;;;;5053311;28;20220;-57
2023/07/20 11:51:38;;;;;;;0.40;0.40;;;;;24.50;95868.00;;;;5053664;28;20199;-57
2023/07/20 11:54:08;;;;;;;0.52;0.52;;;;;24.60;95862.00;;;;5053571;28;20216;-57
2023/07/20 11:56:36;;;;;;;0.60;0.60;;;;;24.30;95856.00;;;;5053977;28;20660;-57
2023/07/20 11:59:04;;;;;;;0.80;0.80;;;;;24.20;95864.00;;;;5051917;28;20229;-57
2023/07/20 12:01:34;;;;;;;0.88;0.88;;;;;24.30;95863.00;;;;5053338;28;20219;-57
2023/07/20 12:04:02;;;;;;;0.60;0.60;;;;;24.40;95859.00;;;;5053037;28;20192;-57
2023/07/20 12:06:30;;;;;;;0.57;0.57;;;;;24.60;95845.00;;;;5053298;28;20250;-57
2023/07/20 12:08:59;;;;;;;0.52;0.52;;;;;24.40;95855.00;;;;5052979;28;20230;-57
2023/07/20 12:11:37;;;;;;;0.88;0.88;;;;;24.10;95875.00;;;;5053193;28;20275;-57
2023/07/20 12:14:05;;;;;;;0.50;0.50;;;;;23.40;95875.00;;;;5053154;28;20701;-57
2023/07/20 12:16:34;;;;;;;0.90;0.90;;;;;24.30;95870.00;;;;5052755;28;20200;-57
2023/07/20 12:19:03;;;;;;;0.45;0.45;;;;;24.40;95843.00;;;;5052968;28;20220;-57
2023/07/20 12:21:30;;;;;;;0.73;0.73;;;;;25.30;95848.00;;;;5053128;28;20204;-58
2023/07/20 12:23:58;;;;;;;1.17;0.93;;;;;24.90;95845.00;;;;5052717;28;20567;-56
2023/07/20 12:26:27;;;;;;;0.60;0.60;;;;;25.50;95840.00;;;;5053031;28;20203;-57